sensor_id;sensor_type;location;lat;lon;timestamp;P1;durP1;ratioP1;P2;durP2;ratioP2
42104;SDS011;68365;51.472;5.712;2023-05-07T00:00:37;6.82;;;2.40;;
42104;SDS011;68365;51.472;5.712;2023-05-07T00:03:02;5.18;;;2.30;;
42104;SDS011;68365;51.472;5.712;2023-05-07T00:05:28;6.22;;;2.53;;
42104;SDS011;68365;51.472;5.712;2023-05-07T00:07:54;4.80;;;2.25;;
42104;SDS011;68365;51.472;5.712;2023-05-07T00:10:20;5.00;;;2.08;;
42104;SDS011;68365;51.472;5.712;2023-05-07T00:12:46;4.82;;;2.50;;
42104;SDS011;68365;51.472;5.712;2023-05-07T00:15:12;5.20;;;2.40;;
42104;SDS011;68365;51.472;5.712;2023-05-07T00:17:38;4.40;;;2.10;;
42104;SDS011;68365;51.472;5.712;2023-05-07T00:20:04;6.05;;;2.25;;
42104;SDS011;68365;51.472;5.712;2023-05-07T00:22:31;5.20;;;2.15;;
42104;SDS011;68365;51.472;5.712;2023-05-07T00:24:57;4.40;;;2.10;;
42104;SDS011;68365;51.472;5.712;2023-05-07T00:27:24;3.70;;;1.98;;
42104;SDS011;68365;51.472;5.712;2023-05-07T00:29:50;4.00;;;2.30;;
42104;SDS011;68365;51.472;5.712;2023-05-07T00:32:16;5.03;;;2.30;;
42104;SDS011;68365;51.472;5.712;2023-05-07T00:34:42;4.57;;;2.28;;
42104;SDS011;68365;51.472;5.712;2023-05-07T00:37:08;5.30;;;2.67;;
42104;SDS011;68365;51.472;5.712;2023-05-07T00:39:34;3.47;;;2.13;;
42104;SDS011;68365;51.472;5.712;2023-05-07T00:42:00;4.80;;;2.15;;
42104;SDS011;68365;51.472;5.712;2023-05-07T00:44:27;4.63;;;2.50;;
42104;SDS011;68365;51.472;5.712;2023-05-07T00:46:54;4.40;;;2.10;;
42104;SDS011;68365;51.472;5.712;2023-05-07T00:49:22;4.18;;;2.28;;
42104;SDS011;68365;51.472;5.712;2023-05-07T00:51:55;4.45;;;2.30;;
42104;SDS011;68365;51.472;5.712;2023-05-07T00:54:21;4.65;;;2.25;;
42104;SDS011;68365;51.472;5.712;2023-05-07T00:56:47;3.80;;;2.30;;
42104;SDS011;68365;51.472;5.712;2023-05-07T00:59:13;5.03;;;2.53;;
42104;SDS011;68365;51.472;5.712;2023-05-07T01:01:39;3.63;;;2.25;;
42104;SDS011;68365;51.472;5.712;2023-05-07T01:04:05;3.75;;;2.42;;
42104;SDS011;68365;51.472;5.712;2023-05-07T01:06:31;3.95;;;2.30;;
42104;SDS011;68365;51.472;5.712;2023-05-07T01:08:58;5.75;;;2.33;;
42104;SDS011;68365;51.472;5.712;2023-05-07T01:11:25;4.30;;;2.30;;
42104;SDS011;68365;51.472;5.712;2023-05-07T01:13:51;4.03;;;2.47;;
42104;SDS011;68365;51.472;5.712;2023-05-07T01:16:17;4.30;;;2.45;;
42104;SDS011;68365;51.472;5.712;2023-05-07T01:18:43;4.90;;;2.25;;
42104;SDS011;68365;51.472;5.712;2023-05-07T01:21:12;6.00;;;2.25;;
42104;SDS011;68365;51.472;5.712;2023-05-07T01:23:40;3.88;;;1.98;;
42104;SDS011;68365;51.472;5.712;2023-05-07T01:26:07;5.10;;;2.35;;
42104;SDS011;68365;51.472;5.712;2023-05-07T01:28:33;5.00;;;2.45;;
42104;SDS011;68365;51.472;5.712;2023-05-07T01:31:00;3.70;;;2.20;;
42104;SDS011;68365;51.472;5.712;2023-05-07T01:33:29;4.07;;;2.17;;
42104;SDS011;68365;51.472;5.712;2023-05-07T01:36:00;4.93;;;2.50;;
42104;SDS011;68365;51.472;5.712;2023-05-07T01:38:28;3.97;;;2.17;;
42104;SDS011;68365;51.472;5.712;2023-05-07T01:40:55;4.20;;;2.15;;
42104;SDS011;68365;51.472;5.712;2023-05-07T01:43:21;4.50;;;2.25;;
42104;SDS011;68365;51.472;5.712;2023-05-07T01:45:47;4.68;;;2.40;;
42104;SDS011;68365;51.472;5.712;2023-05-07T01:48:14;4.78;;;2.30;;
42104;SDS011;68365;51.472;5.712;2023-05-07T01:50:41;4.70;;;2.20;;
42104;SDS011;68365;51.472;5.712;2023-05-07T01:53:08;5.20;;;2.30;;
42104;SDS011;68365;51.472;5.712;2023-05-07T01:55:33;3.67;;;2.10;;
42104;SDS011;68365;51.472;5.712;2023-05-07T01:58:01;4.80;;;2.35;;
42104;SDS011;68365;51.472;5.712;2023-05-07T02:00:28;3.60;;;2.30;;
42104;SDS011;68365;51.472;5.712;2023-05-07T02:02:54;4.45;;;2.20;;
42104;SDS011;68365;51.472;5.712;2023-05-07T02:05:20;3.17;;;2.03;;
42104;SDS011;68365;51.472;5.712;2023-05-07T02:07:46;4.90;;;2.22;;
42104;SDS011;68365;51.472;5.712;2023-05-07T02:10:11;3.78;;;2.15;;
42104;SDS011;68365;51.472;5.712;2023-05-07T02:12:37;5.03;;;2.35;;
42104;SDS011;68365;51.472;5.712;2023-05-07T02:15:03;4.28;;;2.20;;
42104;SDS011;68365;51.472;5.712;2023-05-07T02:17:30;3.40;;;2.28;;
42104;SDS011;68365;51.472;5.712;2023-05-07T02:19:57;3.65;;;2.20;;
42104;SDS011;68365;51.472;5.712;2023-05-07T02:22:23;3.50;;;2.10;;
42104;SDS011;68365;51.472;5.712;2023-05-07T02:24:50;4.57;;;2.28;;
42104;SDS011;68365;51.472;5.712;2023-05-07T02:27:16;3.90;;;2.15;;
42104;SDS011;68365;51.472;5.712;2023-05-07T02:29:41;4.35;;;2.22;;
42104;SDS011;68365;51.472;5.712;2023-05-07T02:32:07;3.78;;;2.15;;
42104;SDS011;68365;51.472;5.712;2023-05-07T02:34:33;4.65;;;2.58;;
42104;SDS011;68365;51.472;5.712;2023-05-07T02:36:59;3.42;;;1.80;;
42104;SDS011;68365;51.472;5.712;2023-05-07T02:39:25;2.88;;;1.90;;
42104;SDS011;68365;51.472;5.712;2023-05-07T02:41:50;4.22;;;2.45;;
42104;SDS011;68365;51.472;5.712;2023-05-07T02:44:16;3.53;;;1.88;;
42104;SDS011;68365;51.472;5.712;2023-05-07T02:46:42;4.18;;;1.88;;
42104;SDS011;68365;51.472;5.712;2023-05-07T02:49:08;4.38;;;2.22;;
42104;SDS011;68365;51.472;5.712;2023-05-07T02:51:33;2.85;;;1.98;;
42104;SDS011;68365;51.472;5.712;2023-05-07T02:53:59;3.72;;;2.08;;
42104;SDS011;68365;51.472;5.712;2023-05-07T02:56:26;3.38;;;2.25;;
42104;SDS011;68365;51.472;5.712;2023-05-07T02:58:52;3.35;;;2.10;;
42104;SDS011;68365;51.472;5.712;2023-05-07T03:01:18;3.47;;;1.90;;
42104;SDS011;68365;51.472;5.712;2023-05-07T03:03:43;5.10;;;2.05;;
42104;SDS011;68365;51.472;5.712;2023-05-07T03:06:09;4.13;;;2.30;;
42104;SDS011;68365;51.472;5.712;2023-05-07T03:08:35;3.13;;;2.20;;
42104;SDS011;68365;51.472;5.712;2023-05-07T03:11:01;3.92;;;2.45;;
42104;SDS011;68365;51.472;5.712;2023-05-07T03:13:27;4.13;;;2.08;;
42104;SDS011;68365;51.472;5.712;2023-05-07T03:15:53;4.05;;;2.15;;
42104;SDS011;68365;51.472;5.712;2023-05-07T03:18:19;4.97;;;2.35;;
42104;SDS011;68365;51.472;5.712;2023-05-07T03:20:45;3.58;;;2.13;;
42104;SDS011;68365;51.472;5.712;2023-05-07T03:23:12;3.03;;;2.10;;
42104;SDS011;68365;51.472;5.712;2023-05-07T03:25:38;3.42;;;1.83;;
42104;SDS011;68365;51.472;5.712;2023-05-07T03:28:04;3.70;;;2.00;;
42104;SDS011;68365;51.472;5.712;2023-05-07T03:30:30;3.60;;;2.17;;
42104;SDS011;68365;51.472;5.712;2023-05-07T03:32:56;3.47;;;2.00;;
42104;SDS011;68365;51.472;5.712;2023-05-07T03:35:22;3.53;;;2.08;;
42104;SDS011;68365;51.472;5.712;2023-05-07T03:37:47;4.25;;;2.25;;
42104;SDS011;68365;51.472;5.712;2023-05-07T03:40:13;3.83;;;2.30;;
42104;SDS011;68365;51.472;5.712;2023-05-07T03:42:39;3.50;;;2.03;;
42104;SDS011;68365;51.472;5.712;2023-05-07T03:45:05;3.13;;;2.10;;
42104;SDS011;68365;51.472;5.712;2023-05-07T03:47:32;3.38;;;2.17;;
42104;SDS011;68365;51.472;5.712;2023-05-07T03:49:58;6.53;;;2.67;;
42104;SDS011;68365;51.472;5.712;2023-05-07T03:52:24;4.00;;;2.15;;
42104;SDS011;68365;51.472;5.712;2023-05-07T03:54:51;3.70;;;2.17;;
42104;SDS011;68365;51.472;5.712;2023-05-07T03:57:19;2.95;;;2.10;;
42104;SDS011;68365;51.472;5.712;2023-05-07T03:59:45;3.20;;;2.22;;
42104;SDS011;68365;51.472;5.712;2023-05-07T04:02:11;2.85;;;2.05;;
42104;SDS011;68365;51.472;5.712;2023-05-07T04:04:37;2.85;;;1.85;;
42104;SDS011;68365;51.472;5.712;2023-05-07T04:07:03;3.38;;;2.08;;
42104;SDS011;68365;51.472;5.712;2023-05-07T04:09:29;2.53;;;1.60;;
42104;SDS011;68365;51.472;5.712;2023-05-07T04:11:55;4.70;;;2.13;;
42104;SDS011;68365;51.472;5.712;2023-05-07T04:14:21;2.75;;;2.05;;
42104;SDS011;68365;51.472;5.712;2023-05-07T04:16:46;2.90;;;2.25;;
42104;SDS011;68365;51.472;5.712;2023-05-07T04:19:12;2.95;;;1.98;;
42104;SDS011;68365;51.472;5.712;2023-05-07T04:21:38;3.80;;;2.00;;
42104;SDS011;68365;51.472;5.712;2023-05-07T04:24:05;4.70;;;2.38;;
42104;SDS011;68365;51.472;5.712;2023-05-07T04:26:31;3.55;;;1.90;;
42104;SDS011;68365;51.472;5.712;2023-05-07T04:28:57;3.65;;;1.88;;
42104;SDS011;68365;51.472;5.712;2023-05-07T04:31:24;3.10;;;1.90;;
42104;SDS011;68365;51.472;5.712;2023-05-07T04:33:50;3.22;;;2.20;;
42104;SDS011;68365;51.472;5.712;2023-05-07T04:36:16;5.95;;;2.00;;
42104;SDS011;68365;51.472;5.712;2023-05-07T04:38:42;3.97;;;2.00;;
42104;SDS011;68365;51.472;5.712;2023-05-07T04:41:08;3.75;;;2.05;;
42104;SDS011;68365;51.472;5.712;2023-05-07T04:43:35;2.20;;;2.00;;
42104;SDS011;68365;51.472;5.712;2023-05-07T04:46:00;3.35;;;2.00;;
42104;SDS011;68365;51.472;5.712;2023-05-07T04:48:26;2.67;;;1.90;;
42104;SDS011;68365;51.472;5.712;2023-05-07T04:50:53;2.80;;;2.00;;
42104;SDS011;68365;51.472;5.712;2023-05-07T04:53:19;3.63;;;1.83;;
42104;SDS011;68365;51.472;5.712;2023-05-07T04:55:46;2.95;;;2.00;;
42104;SDS011;68365;51.472;5.712;2023-05-07T04:58:12;3.00;;;1.90;;
42104;SDS011;68365;51.472;5.712;2023-05-07T05:00:38;2.60;;;1.83;;
42104;SDS011;68365;51.472;5.712;2023-05-07T05:03:04;4.82;;;2.10;;
42104;SDS011;68365;51.472;5.712;2023-05-07T05:05:33;3.03;;;2.10;;
42104;SDS011;68365;51.472;5.712;2023-05-07T05:07:59;3.20;;;2.05;;
42104;SDS011;68365;51.472;5.712;2023-05-07T05:10:25;3.08;;;2.00;;
42104;SDS011;68365;51.472;5.712;2023-05-07T05:12:50;5.95;;;2.13;;
42104;SDS011;68365;51.472;5.712;2023-05-07T05:15:16;2.35;;;1.90;;
42104;SDS011;68365;51.472;5.712;2023-05-07T05:17:42;3.15;;;1.90;;
42104;SDS011;68365;51.472;5.712;2023-05-07T05:20:08;2.60;;;1.90;;
42104;SDS011;68365;51.472;5.712;2023-05-07T05:22:35;4.43;;;2.13;;
42104;SDS011;68365;51.472;5.712;2023-05-07T05:25:01;3.83;;;2.00;;
42104;SDS011;68365;51.472;5.712;2023-05-07T05:27:27;2.88;;;2.10;;
42104;SDS011;68365;51.472;5.712;2023-05-07T05:29:54;2.85;;;2.03;;
42104;SDS011;68365;51.472;5.712;2023-05-07T05:32:19;3.42;;;2.03;;
42104;SDS011;68365;51.472;5.712;2023-05-07T05:34:45;2.42;;;1.77;;
42104;SDS011;68365;51.472;5.712;2023-05-07T05:37:11;2.78;;;1.77;;
42104;SDS011;68365;51.472;5.712;2023-05-07T05:39:37;2.03;;;1.83;;
42104;SDS011;68365;51.472;5.712;2023-05-07T05:42:03;2.75;;;1.85;;
42104;SDS011;68365;51.472;5.712;2023-05-07T05:44:29;2.85;;;1.88;;
42104;SDS011;68365;51.472;5.712;2023-05-07T05:46:54;3.08;;;2.10;;
42104;SDS011;68365;51.472;5.712;2023-05-07T05:49:22;2.50;;;1.75;;
42104;SDS011;68365;51.472;5.712;2023-05-07T05:51:48;3.25;;;2.17;;
42104;SDS011;68365;51.472;5.712;2023-05-07T05:54:14;2.53;;;1.80;;
42104;SDS011;68365;51.472;5.712;2023-05-07T05:56:41;2.42;;;1.73;;
42104;SDS011;68365;51.472;5.712;2023-05-07T05:59:07;2.70;;;1.80;;
42104;SDS011;68365;51.472;5.712;2023-05-07T06:01:33;2.92;;;1.80;;
42104;SDS011;68365;51.472;5.712;2023-05-07T06:03:59;3.00;;;1.80;;
42104;SDS011;68365;51.472;5.712;2023-05-07T06:06:25;3.13;;;2.20;;
42104;SDS011;68365;51.472;5.712;2023-05-07T06:08:51;3.05;;;1.80;;
42104;SDS011;68365;51.472;5.712;2023-05-07T06:11:16;2.97;;;1.95;;
42104;SDS011;68365;51.472;5.712;2023-05-07T06:13:42;3.58;;;1.98;;
42104;SDS011;68365;51.472;5.712;2023-05-07T06:16:08;2.53;;;2.10;;
42104;SDS011;68365;51.472;5.712;2023-05-07T06:18:34;3.03;;;2.10;;
42104;SDS011;68365;51.472;5.712;2023-05-07T06:21:01;2.33;;;1.90;;
42104;SDS011;68365;51.472;5.712;2023-05-07T06:23:27;3.38;;;2.00;;
42104;SDS011;68365;51.472;5.712;2023-05-07T06:25:52;3.30;;;1.98;;
42104;SDS011;68365;51.472;5.712;2023-05-07T06:28:18;3.80;;;2.00;;
42104;SDS011;68365;51.472;5.712;2023-05-07T06:30:44;3.10;;;1.90;;
42104;SDS011;68365;51.472;5.712;2023-05-07T06:33:10;2.92;;;2.20;;
42104;SDS011;68365;51.472;5.712;2023-05-07T06:35:36;2.28;;;1.98;;
42104;SDS011;68365;51.472;5.712;2023-05-07T06:38:02;2.05;;;1.75;;
42104;SDS011;68365;51.472;5.712;2023-05-07T06:40:27;2.47;;;1.80;;
42104;SDS011;68365;51.472;5.712;2023-05-07T06:42:53;4.03;;;1.90;;
42104;SDS011;68365;51.472;5.712;2023-05-07T06:45:19;2.83;;;1.85;;
42104;SDS011;68365;51.472;5.712;2023-05-07T06:47:45;2.80;;;1.95;;
42104;SDS011;68365;51.472;5.712;2023-05-07T06:50:11;3.03;;;1.77;;
42104;SDS011;68365;51.472;5.712;2023-05-07T06:52:37;3.25;;;1.88;;
42104;SDS011;68365;51.472;5.712;2023-05-07T06:55:03;2.60;;;1.98;;
42104;SDS011;68365;51.472;5.712;2023-05-07T06:57:29;2.45;;;1.92;;
42104;SDS011;68365;51.472;5.712;2023-05-07T06:59:55;3.08;;;1.70;;
42104;SDS011;68365;51.472;5.712;2023-05-07T07:02:21;2.20;;;1.90;;
42104;SDS011;68365;51.472;5.712;2023-05-07T07:04:47;2.60;;;1.90;;
42104;SDS011;68365;51.472;5.712;2023-05-07T07:07:13;2.85;;;1.77;;
42104;SDS011;68365;51.472;5.712;2023-05-07T07:09:38;2.92;;;2.05;;
42104;SDS011;68365;51.472;5.712;2023-05-07T07:12:04;2.10;;;1.80;;
42104;SDS011;68365;51.472;5.712;2023-05-07T07:14:30;2.70;;;1.77;;
42104;SDS011;68365;51.472;5.712;2023-05-07T07:16:56;2.08;;;1.58;;
42104;SDS011;68365;51.472;5.712;2023-05-07T07:19:22;3.30;;;1.90;;
42104;SDS011;68365;51.472;5.712;2023-05-07T07:21:48;2.58;;;1.73;;
42104;SDS011;68365;51.472;5.712;2023-05-07T07:24:14;2.30;;;1.73;;
42104;SDS011;68365;51.472;5.712;2023-05-07T07:26:46;3.30;;;1.77;;
42104;SDS011;68365;51.472;5.712;2023-05-07T07:29:12;2.72;;;1.90;;
42104;SDS011;68365;51.472;5.712;2023-05-07T07:31:41;3.08;;;1.90;;
42104;SDS011;68365;51.472;5.712;2023-05-07T07:49:02;2.78;;;1.73;;
42104;SDS011;68365;51.472;5.712;2023-05-07T07:51:28;4.82;;;1.90;;
42104;SDS011;68365;51.472;5.712;2023-05-07T07:53:55;2.28;;;1.60;;
42104;SDS011;68365;51.472;5.712;2023-05-07T07:56:22;3.80;;;2.28;;
42104;SDS011;68365;51.472;5.712;2023-05-07T07:58:49;5.15;;;3.33;;
42104;SDS011;68365;51.472;5.712;2023-05-07T08:01:14;6.03;;;4.18;;
42104;SDS011;68365;51.472;5.712;2023-05-07T08:03:41;5.20;;;2.22;;
42104;SDS011;68365;51.472;5.712;2023-05-07T08:06:07;4.97;;;2.67;;
42104;SDS011;68365;51.472;5.712;2023-05-07T08:08:33;4.10;;;3.05;;
42104;SDS011;68365;51.472;5.712;2023-05-07T08:10:58;4.38;;;3.33;;
42104;SDS011;68365;51.472;5.712;2023-05-07T08:13:24;5.57;;;4.30;;
42104;SDS011;68365;51.472;5.712;2023-05-07T08:15:50;6.45;;;4.63;;
42104;SDS011;68365;51.472;5.712;2023-05-07T08:18:16;6.18;;;4.45;;
42104;SDS011;68365;51.472;5.712;2023-05-07T08:20:42;7.65;;;4.60;;
42104;SDS011;68365;51.472;5.712;2023-05-07T08:23:08;7.22;;;4.18;;
42104;SDS011;68365;51.472;5.712;2023-05-07T08:25:37;5.28;;;3.08;;
42104;SDS011;68365;51.472;5.712;2023-05-07T08:28:02;5.32;;;4.32;;
42104;SDS011;68365;51.472;5.712;2023-05-07T08:30:28;5.78;;;3.85;;
42104;SDS011;68365;51.472;5.712;2023-05-07T08:32:54;4.72;;;3.50;;
42104;SDS011;68365;51.472;5.712;2023-05-07T08:35:20;9.48;;;3.55;;
42104;SDS011;68365;51.472;5.712;2023-05-07T08:37:46;6.57;;;3.65;;
42104;SDS011;68365;51.472;5.712;2023-05-07T08:40:12;7.07;;;4.25;;
42104;SDS011;68365;51.472;5.712;2023-05-07T08:42:38;9.98;;;7.57;;
42104;SDS011;68365;51.472;5.712;2023-05-07T08:45:09;12.45;;;8.30;;
42104;SDS011;68365;51.472;5.712;2023-05-07T08:47:43;12.27;;;8.30;;
42104;SDS011;68365;51.472;5.712;2023-05-07T08:50:12;14.63;;;9.48;;
42104;SDS011;68365;51.472;5.712;2023-05-07T08:52:38;15.23;;;9.40;;
42104;SDS011;68365;51.472;5.712;2023-05-07T08:55:05;10.90;;;7.25;;
42104;SDS011;68365;51.472;5.712;2023-05-07T08:57:33;12.68;;;9.68;;
42104;SDS011;68365;51.472;5.712;2023-05-07T08:59:59;12.77;;;10.25;;
42104;SDS011;68365;51.472;5.712;2023-05-07T09:02:25;17.05;;;8.50;;
42104;SDS011;68365;51.472;5.712;2023-05-07T09:04:51;19.08;;;10.23;;
42104;SDS011;68365;51.472;5.712;2023-05-07T09:07:18;16.35;;;10.55;;
42104;SDS011;68365;51.472;5.712;2023-05-07T09:09:45;14.88;;;10.07;;
42104;SDS011;68365;51.472;5.712;2023-05-07T09:12:11;14.25;;;10.63;;
42104;SDS011;68365;51.472;5.712;2023-05-07T09:14:37;13.77;;;10.55;;
42104;SDS011;68365;51.472;5.712;2023-05-07T09:17:04;14.90;;;11.05;;
42104;SDS011;68365;51.472;5.712;2023-05-07T09:19:30;11.68;;;9.93;;
42104;SDS011;68365;51.472;5.712;2023-05-07T09:21:59;15.90;;;11.07;;
42104;SDS011;68365;51.472;5.712;2023-05-07T09:24:27;14.23;;;11.23;;
42104;SDS011;68365;51.472;5.712;2023-05-07T09:26:59;13.88;;;10.95;;
42104;SDS011;68365;51.472;5.712;2023-05-07T09:29:26;13.50;;;11.82;;
42104;SDS011;68365;51.472;5.712;2023-05-07T09:32:00;15.60;;;13.07;;
42104;SDS011;68365;51.472;5.712;2023-05-07T09:34:30;16.05;;;12.30;;
42104;SDS011;68365;51.472;5.712;2023-05-07T09:36:58;15.30;;;11.82;;
42104;SDS011;68365;51.472;5.712;2023-05-07T09:39:28;15.38;;;11.95;;
42104;SDS011;68365;51.472;5.712;2023-05-07T09:42:07;17.73;;;12.90;;
42104;SDS011;68365;51.472;5.712;2023-05-07T09:44:33;15.15;;;12.30;;
42104;SDS011;68365;51.472;5.712;2023-05-07T09:47:00;14.35;;;11.38;;
42104;SDS011;68365;51.472;5.712;2023-05-07T09:49:29;12.30;;;11.10;;
42104;SDS011;68365;51.472;5.712;2023-05-07T09:51:58;15.63;;;11.38;;
42104;SDS011;68365;51.472;5.712;2023-05-07T09:54:26;14.57;;;11.00;;
42104;SDS011;68365;51.472;5.712;2023-05-07T09:56:55;15.63;;;10.85;;
42104;SDS011;68365;51.472;5.712;2023-05-07T09:59:23;15.07;;;10.93;;
42104;SDS011;68365;51.472;5.712;2023-05-07T10:01:50;13.20;;;11.00;;
42104;SDS011;68365;51.472;5.712;2023-05-07T10:04:21;13.48;;;11.02;;
42104;SDS011;68365;51.472;5.712;2023-05-07T10:06:47;13.85;;;9.77;;
42104;SDS011;68365;51.472;5.712;2023-05-07T10:09:13;11.52;;;10.32;;
42104;SDS011;68365;51.472;5.712;2023-05-07T10:11:40;12.05;;;10.38;;
42104;SDS011;68365;51.472;5.712;2023-05-07T10:14:07;12.02;;;9.35;;
42104;SDS011;68365;51.472;5.712;2023-05-07T10:16:33;14.13;;;10.15;;
42104;SDS011;68365;51.472;5.712;2023-05-07T10:19:04;14.02;;;10.13;;
42104;SDS011;68365;51.472;5.712;2023-05-07T10:21:34;10.48;;;9.40;;
42104;SDS011;68365;51.472;5.712;2023-05-07T10:24:08;12.32;;;9.35;;
42104;SDS011;68365;51.472;5.712;2023-05-07T10:26:43;14.93;;;9.60;;
42104;SDS011;68365;51.472;5.712;2023-05-07T10:29:14;14.30;;;9.88;;
42104;SDS011;68365;51.472;5.712;2023-05-07T10:32:06;11.98;;;8.77;;
42104;SDS011;68365;51.472;5.712;2023-05-07T10:34:58;13.68;;;8.63;;
42104;SDS011;68365;51.472;5.712;2023-05-07T10:37:29;11.82;;;9.15;;
42104;SDS011;68365;51.472;5.712;2023-05-07T10:39:56;11.93;;;8.68;;
42104;SDS011;68365;51.472;5.712;2023-05-07T10:42:22;16.55;;;8.60;;
42104;SDS011;68365;51.472;5.712;2023-05-07T10:44:48;9.13;;;7.70;;
42104;SDS011;68365;51.472;5.712;2023-05-07T10:47:15;13.05;;;7.78;;
42104;SDS011;68365;51.472;5.712;2023-05-07T10:54:46;11.38;;;7.20;;
42104;SDS011;68365;51.472;5.712;2023-05-07T10:59:56;7.77;;;6.80;;
42104;SDS011;68365;51.472;5.712;2023-05-07T11:02:23;10.07;;;6.60;;
42104;SDS011;68365;51.472;5.712;2023-05-07T11:05:18;7.80;;;6.30;;
42104;SDS011;68365;51.472;5.712;2023-05-07T11:07:54;10.70;;;6.10;;
42104;SDS011;68365;51.472;5.712;2023-05-07T11:13:12;10.30;;;5.55;;
42104;SDS011;68365;51.472;5.712;2023-05-07T11:15:44;9.98;;;5.40;;
42104;SDS011;68365;51.472;5.712;2023-05-07T11:18:12;8.52;;;5.50;;
42104;SDS011;68365;51.472;5.712;2023-05-07T11:21:10;8.55;;;4.65;;
42104;SDS011;68365;51.472;5.712;2023-05-07T11:26:07;9.05;;;5.07;;
42104;SDS011;68365;51.472;5.712;2023-05-07T11:28:50;5.75;;;4.47;;
42104;SDS011;68365;51.472;5.712;2023-05-07T11:34:57;11.02;;;4.60;;
42104;SDS011;68365;51.472;5.712;2023-05-07T11:37:45;7.87;;;4.37;;
42104;SDS011;68365;51.472;5.712;2023-05-07T11:40:14;7.80;;;4.55;;
42104;SDS011;68365;51.472;5.712;2023-05-07T11:42:40;5.53;;;4.30;;
42104;SDS011;68365;51.472;5.712;2023-05-07T11:45:09;6.60;;;3.85;;
42104;SDS011;68365;51.472;5.712;2023-05-07T11:47:35;9.68;;;4.38;;
42104;SDS011;68365;51.472;5.712;2023-05-07T11:50:04;5.47;;;3.70;;
42104;SDS011;68365;51.472;5.712;2023-05-07T11:52:32;6.72;;;3.95;;
42104;SDS011;68365;51.472;5.712;2023-05-07T11:54:59;5.05;;;3.72;;
42104;SDS011;68365;51.472;5.712;2023-05-07T11:57:27;13.38;;;4.00;;
42104;SDS011;68365;51.472;5.712;2023-05-07T11:59:54;6.28;;;3.90;;
42104;SDS011;68365;51.472;5.712;2023-05-07T12:02:25;7.85;;;4.20;;
42104;SDS011;68365;51.472;5.712;2023-05-07T12:04:51;6.50;;;4.00;;
42104;SDS011;68365;51.472;5.712;2023-05-07T12:07:18;7.00;;;3.47;;
42104;SDS011;68365;51.472;5.712;2023-05-07T12:09:44;5.40;;;3.17;;
42104;SDS011;68365;51.472;5.712;2023-05-07T12:12:11;10.10;;;3.70;;
42104;SDS011;68365;51.472;5.712;2023-05-07T12:14:42;5.70;;;3.22;;
42104;SDS011;68365;51.472;5.712;2023-05-07T12:17:11;16.23;;;3.50;;
42104;SDS011;68365;51.472;5.712;2023-05-07T12:19:39;7.25;;;3.50;;
42104;SDS011;68365;51.472;5.712;2023-05-07T12:22:08;7.70;;;3.60;;
42104;SDS011;68365;51.472;5.712;2023-05-07T12:24:44;7.38;;;3.50;;
42104;SDS011;68365;51.472;5.712;2023-05-07T12:27:12;9.60;;;3.60;;
42104;SDS011;68365;51.472;5.712;2023-05-07T12:29:39;7.53;;;3.10;;
42104;SDS011;68365;51.472;5.712;2023-05-07T12:32:16;6.20;;;3.35;;
42104;SDS011;68365;51.472;5.712;2023-05-07T12:34:44;6.90;;;3.47;;
42104;SDS011;68365;51.472;5.712;2023-05-07T12:37:11;8.80;;;3.33;;
42104;SDS011;68365;51.472;5.712;2023-05-07T12:39:38;12.48;;;3.40;;
42104;SDS011;68365;51.472;5.712;2023-05-07T12:42:09;7.57;;;3.55;;
42104;SDS011;68365;51.472;5.712;2023-05-07T12:44:51;8.20;;;2.90;;
42104;SDS011;68365;51.472;5.712;2023-05-07T12:47:17;4.95;;;3.13;;
42104;SDS011;68365;51.472;5.712;2023-05-07T12:49:43;5.60;;;2.88;;
42104;SDS011;68365;51.472;5.712;2023-05-07T12:52:10;8.98;;;2.83;;
42104;SDS011;68365;51.472;5.712;2023-05-07T12:54:37;8.75;;;3.35;;
42104;SDS011;68365;51.472;5.712;2023-05-07T12:57:09;4.63;;;3.13;;
42104;SDS011;68365;51.472;5.712;2023-05-07T12:59:39;6.40;;;3.00;;
42104;SDS011;68365;51.472;5.712;2023-05-07T13:02:06;4.07;;;3.03;;
42104;SDS011;68365;51.472;5.712;2023-05-07T13:04:33;4.80;;;3.03;;
42104;SDS011;68365;51.472;5.712;2023-05-07T13:06:59;5.93;;;3.10;;
42104;SDS011;68365;51.472;5.712;2023-05-07T13:09:26;5.38;;;2.95;;
42104;SDS011;68365;51.472;5.712;2023-05-07T13:11:54;7.00;;;3.55;;
42104;SDS011;68365;51.472;5.712;2023-05-07T13:14:20;7.00;;;3.58;;
42104;SDS011;68365;51.472;5.712;2023-05-07T13:16:49;6.88;;;3.55;;
42104;SDS011;68365;51.472;5.712;2023-05-07T13:19:14;8.10;;;3.20;;
42104;SDS011;68365;51.472;5.712;2023-05-07T13:21:40;4.40;;;2.80;;
42104;SDS011;68365;51.472;5.712;2023-05-07T13:24:06;4.93;;;2.63;;
42104;SDS011;68365;51.472;5.712;2023-05-07T13:26:32;7.00;;;2.70;;
42104;SDS011;68365;51.472;5.712;2023-05-07T13:28:58;5.63;;;2.80;;
42104;SDS011;68365;51.472;5.712;2023-05-07T13:31:24;7.40;;;3.05;;
42104;SDS011;68365;51.472;5.712;2023-05-07T13:33:50;8.18;;;2.88;;
42104;SDS011;68365;51.472;5.712;2023-05-07T13:36:17;8.38;;;3.28;;
42104;SDS011;68365;51.472;5.712;2023-05-07T13:38:43;7.07;;;2.80;;
42104;SDS011;68365;51.472;5.712;2023-05-07T13:41:09;6.25;;;2.70;;
42104;SDS011;68365;51.472;5.712;2023-05-07T13:43:34;6.57;;;2.70;;
42104;SDS011;68365;51.472;5.712;2023-05-07T13:46:00;8.80;;;2.70;;
42104;SDS011;68365;51.472;5.712;2023-05-07T13:48:26;5.53;;;2.90;;
42104;SDS011;68365;51.472;5.712;2023-05-07T13:50:53;8.40;;;3.08;;
42104;SDS011;68365;51.472;5.712;2023-05-07T13:53:19;6.55;;;3.03;;
42104;SDS011;68365;51.472;5.712;2023-05-07T13:55:45;5.95;;;2.65;;
42104;SDS011;68365;51.472;5.712;2023-05-07T13:58:11;6.75;;;2.42;;
42104;SDS011;68365;51.472;5.712;2023-05-07T14:00:36;7.78;;;3.28;;
42104;SDS011;68365;51.472;5.712;2023-05-07T14:03:03;7.63;;;2.50;;
42104;SDS011;68365;51.472;5.712;2023-05-07T14:05:30;4.53;;;2.35;;
42104;SDS011;68365;51.472;5.712;2023-05-07T14:07:59;5.50;;;2.70;;
42104;SDS011;68365;51.472;5.712;2023-05-07T14:10:25;4.18;;;2.13;;
42104;SDS011;68365;51.472;5.712;2023-05-07T14:12:51;5.90;;;2.65;;
42104;SDS011;68365;51.472;5.712;2023-05-07T14:15:17;5.03;;;2.38;;
42104;SDS011;68365;51.472;5.712;2023-05-07T14:17:43;5.35;;;2.60;;
42104;SDS011;68365;51.472;5.712;2023-05-07T14:20:09;6.18;;;2.30;;
42104;SDS011;68365;51.472;5.712;2023-05-07T14:22:36;3.65;;;2.10;;
42104;SDS011;68365;51.472;5.712;2023-05-07T14:25:02;5.72;;;2.42;;
42104;SDS011;68365;51.472;5.712;2023-05-07T14:27:29;5.80;;;2.13;;
42104;SDS011;68365;51.472;5.712;2023-05-07T14:29:55;4.22;;;2.10;;
42104;SDS011;68365;51.472;5.712;2023-05-07T14:32:21;6.20;;;2.60;;
42104;SDS011;68365;51.472;5.712;2023-05-07T14:34:47;6.57;;;2.28;;
42104;SDS011;68365;51.472;5.712;2023-05-07T14:37:12;4.18;;;2.50;;
42104;SDS011;68365;51.472;5.712;2023-05-07T14:39:38;7.38;;;2.38;;
42104;SDS011;68365;51.472;5.712;2023-05-07T14:42:05;5.05;;;2.42;;
42104;SDS011;68365;51.472;5.712;2023-05-07T14:44:32;4.32;;;2.20;;
42104;SDS011;68365;51.472;5.712;2023-05-07T14:47:01;5.40;;;2.08;;
42104;SDS011;68365;51.472;5.712;2023-05-07T14:49:27;5.60;;;2.42;;
42104;SDS011;68365;51.472;5.712;2023-05-07T14:51:53;5.28;;;2.10;;
42104;SDS011;68365;51.472;5.712;2023-05-07T14:54:19;5.65;;;2.38;;
42104;SDS011;68365;51.472;5.712;2023-05-07T14:56:45;2.92;;;1.90;;
42104;SDS011;68365;51.472;5.712;2023-05-07T14:59:11;7.22;;;2.47;;
42104;SDS011;68365;51.472;5.712;2023-05-07T15:01:37;4.50;;;2.20;;
42104;SDS011;68365;51.472;5.712;2023-05-07T15:04:05;6.90;;;2.28;;
42104;SDS011;68365;51.472;5.712;2023-05-07T15:06:31;6.53;;;2.45;;
42104;SDS011;68365;51.472;5.712;2023-05-07T15:08:57;5.50;;;2.38;;
42104;SDS011;68365;51.472;5.712;2023-05-07T15:11:23;8.90;;;2.20;;
42104;SDS011;68365;51.472;5.712;2023-05-07T15:13:49;7.07;;;2.00;;
42104;SDS011;68365;51.472;5.712;2023-05-07T15:16:15;5.90;;;2.03;;